Map

Track Data

SID SEASON NUMBER BASIN SUBBASIN NAME ISO_TIME NATURE LAT LON WMO_WIND WMO_PRES WMO_AGENCY TRACK_TYPE DIST2LAND LANDFALL IFLAG USA_AGENCY USA_ATCF_ID USA_LAT USA_LON USA_RECORD USA_STATUS USA_WIND USA_PRES USA_SSHS USA_R34_NE USA_R34_SE USA_R34_SW USA_R34_NW USA_R50_NE USA_R50_SE USA_R50_SW USA_R50_NW USA_R64_NE USA_R64_SE USA_R64_SW USA_R64_NW USA_POCI USA_ROCI USA_RMW USA_EYE TOKYO_LAT TOKYO_LON TOKYO_GRADE TOKYO_WIND TOKYO_PRES TOKYO_R50_DIR TOKYO_R50_LONG TOKYO_R50_SHORT TOKYO_R30_DIR TOKYO_R30_LONG TOKYO_R30_SHORT TOKYO_LAND CMA_LAT CMA_LON CMA_CAT CMA_WIND CMA_PRES HKO_LAT HKO_LON HKO_CAT HKO_WIND HKO_PRES NEWDELHI_LAT NEWDELHI_LON NEWDELHI_GRADE NEWDELHI_WIND NEWDELHI_PRES NEWDELHI_CI NEWDELHI_DP NEWDELHI_POCI REUNION_LAT REUNION_LON REUNION_TYPE REUNION_WIND REUNION_PRES REUNION_TNUM REUNION_CI REUNION_RMW REUNION_R34_NE REUNION_R34_SE REUNION_R34_SW REUNION_R34_NW REUNION_R50_NE REUNION_R50_SE REUNION_R50_SW REUNION_R50_NW REUNION_R64_NE REUNION_R64_SE REUNION_R64_SW REUNION_R64_NW BOM_LAT BOM_LON BOM_TYPE BOM_WIND BOM_PRES BOM_TNUM BOM_CI BOM_RMW BOM_R34_NE BOM_R34_SE BOM_R34_SW BOM_R34_NW BOM_R50_NE BOM_R50_SE BOM_R50_SW BOM_R50_NW BOM_R64_NE BOM_R64_SE BOM_R64_SW BOM_R64_NW BOM_ROCI BOM_POCI BOM_EYE BOM_POS_METHOD BOM_PRES_METHOD NADI_LAT NADI_LON NADI_CAT NADI_WIND NADI_PRES WELLINGTON_LAT WELLINGTON_LON WELLINGTON_WIND WELLINGTON_PRES DS824_LAT DS824_LON DS824_STAGE DS824_WIND DS824_PRES TD9636_LAT TD9636_LON TD9636_STAGE TD9636_WIND TD9636_PRES TD9635_LAT TD9635_LON TD9635_WIND TD9635_PRES TD9635_ROCI NEUMANN_LAT NEUMANN_LON NEUMANN_CLASS NEUMANN_WIND NEUMANN_PRES MLC_LAT MLC_LON MLC_CLASS MLC_WIND MLC_PRES USA_GUST BOM_GUST BOM_GUST_PER REUNION_GUST REUNION_GUST_PER USA_SEAHGT USA_SEARAD_NE USA_SEARAD_SE USA_SEARAD_SW USA_SEARAD_NW STORM_SPEED STORM_DIR
1907121S16066 1907 19 SI MM NOT_NAMED 1907-05-01 06:00:00 NR -16.0000 66.0000 reunion spur-split 989 989 _____O________ -1 -16.0000 66.0000 99 9.90000 1 301
1907121S16066 1907 19 SI MM NOT_NAMED 1907-05-01 09:00:00 NR -15.9798 65.9663 spur-split 989 980 _____P________ -1 -15.9798 65.9663 99 1 294
1907121S16066 1907 19 SI MM NOT_NAMED 1907-05-01 12:00:00 NR -15.9722 65.9311 spur-split 980 980 _____P________ -1 -15.9722 65.9311 99 1 262
1907121S16066 1907 19 SI MM NOT_NAMED 1907-05-01 15:00:00 NR -15.9898 65.8928 spur-split 980 980 _____P________ -1 -15.9898 65.8928 99 1 226
1907121S16066 1907 19 SI MM NOT_NAMED 1907-05-01 18:00:00 NR -16.0454 65.8499 spur-split 971 965 _____P________ -1 -16.0454 65.8499 99 2 209
1907121S16066 1907 19 SI MM NOT_NAMED 1907-05-01 21:00:00 NR -16.1516 65.8008 spur-split 960 945 _____P________ -1 -16.1516 65.8008 99 3 200
1907121S16066 1907 19 SI MM NOT_NAMED 1907-05-02 00:00:00 NR -16.3209 65.7439 spur-split 945 935 _____P________ -1 -16.3209 65.7439 99 4 196
1907121S16066 1907 19 SI MM NOT_NAMED 1907-05-02 03:00:00 NR -16.5662 65.6775 spur-split 930 905 _____P________ -1 -16.5662 65.6775 99 6 193
1907121S16066 1907 19 SI MM NOT_NAMED 1907-05-02 06:00:00 NR -16.9000 65.6000 reunion spur-split 905 877 _____O________ -1 -16.9000 65.6000 99 9.90000 8 192
1907121S16066 1907 19 SI MM NOT_NAMED 1907-05-02 09:00:00 NR -17.3288 65.5106 spur-split 877 846 _____P________ -1 -17.3288 65.5106 99 10 191
1907121S16066 1907 19 SI MM NOT_NAMED 1907-05-02 12:00:00 NR -17.8331 65.4127 spur-split 846 814 _____P________ -1 -17.8331 65.4127 99 11 190
1907121S16066 1907 19 SI MM NOT_NAMED 1907-05-02 15:00:00 NR -18.3873 65.3105 spur-split 814 790 _____P________ -1 -18.3873 65.3105 99 12 190
1907121S16066 1907 19 SI MM NOT_NAMED 1907-05-02 18:00:00 NR -18.9654 65.2088 spur-split 788 768 _____P________ -1 -18.9654 65.2088 99 12 189
1907121S16066 1907 19 SI MM NOT_NAMED 1907-05-02 21:00:00 NR -19.5415 65.1120 spur-split 768 751 _____P________ -1 -19.5415 65.1120 99 11 189
1907121S16066 1907 19 SI MM NOT_NAMED 1907-05-03 00:00:00 NR -20.0899 65.0250 spur-split 751 750 _____P________ -1 -20.0899 65.0250 99 11 188
1907121S16066 1907 19 SI MM NOT_NAMED 1907-05-03 03:00:00 NR -20.5846 64.9527 spur-split 750 740 _____P________ -1 -20.5846 64.9527 99 9 187
1907121S16066 1907 19 SI MM NOT_NAMED 1907-05-03 06:00:00 NR -21.0000 64.9000 reunion spur-split 742 742 _____O________ -1 -21.0000 64.9000 99 9.90000 7 186
1907121S16066 1907 19 SI MM NOT_NAMED 1907-05-03 09:00:00 NR -21.3168 64.8706 spur-split 746 746 _____P________ -1 -21.3168 64.8706 99 5 185
1907121S16066 1907 19 SI MM NOT_NAMED 1907-05-03 12:00:00 NR -21.5419 64.8628 spur-split 749 749 _____P________ -1 -21.5419 64.8628 99 4 0
1907121S16066 1907 19 SI MM NOT_NAMED 1907-05-03 15:00:00 NR -21.6883 64.8738 spur-split 753 753 _____P________ -1 -21.6883 64.8738 99 2 170
1907121S16066 1907 19 SI MM NOT_NAMED 1907-05-03 18:00:00 NR -21.7692 64.9003 spur-split 755 755 _____P________ -1 -21.7692 64.9003 99 1 151
1907121S16066 1907 19 SI MM NOT_NAMED 1907-05-03 21:00:00 NR -21.7978 64.9394 spur-split 755 755 _____P________ -1 -21.7978 64.9394 99 1 103
1907121S16066 1907 19 SI MM NOT_NAMED 1907-05-04 00:00:00 NR -21.7870 64.9877 spur-split 765 765 _____P________ -1 -21.7870 64.9877 99 1 63
1907121S16066 1907 19 SI MM NOT_NAMED 1907-05-04 03:00:00 NR -21.7501 65.0423 spur-split 765 763 _____P________ -1 -21.7501 65.0423 99 1 51
1907121S16066 1907 19 SI MM NOT_NAMED 1907-05-04 06:00:00 NR -21.7000 65.1000 reunion spur-split 773 _____O________ -1 -21.7000 65.1000 99 9.90000 1 51

About IBTrACS Database

This database is a web-friendly format of International Best Track Archive for Climate Stewardship (IBTrACS), a global best track data archive curated by NOAA dating back to 1842.

Updated: 2021-12-08